Time;durP1;ratioP1;P1;durP2;ratioP2;P2;SDS_P1;SDS_P2;PMS_P1;PMS_P2;Temp;Humidity;BMP_temperature;BMP_pressure;BME280_temperature;BME280_humidity;BME280_pressure;Samples;Min_cycle;Max_cycle;Signal;HPM_P1;HPM_P2
2022/10/04 00:00:41;;;;;;;24.60;8.80;;;8.80;99.90;;;;;;4975955;28;20234;-87
2022/10/04 00:03:31;;;;;;;28.53;8.87;;;8.80;99.90;;;;;;4991227;28;20560;-87
2022/10/04 00:06:00;;;;;;;27.43;8.40;;;8.80;99.90;;;;;;5011766;28;20295;-87
2022/10/04 00:08:34;;;;;;;19.83;8.43;;;8.80;99.90;;;;;;4995054;28;20190;-87
2022/10/04 00:11:14;;;;;;;18.10;8.47;;;8.80;99.90;;;;;;4980626;28;20793;-87
2022/10/04 00:13:45;;;;;;;16.10;9.13;;;8.80;99.90;;;;;;4980541;28;20179;-87
2022/10/04 00:16:36;;;;;;;13.83;8.33;;;8.80;99.90;;;;;;4993532;28;20208;-86
2022/10/04 00:19:15;;;;;;;12.47;8.10;;;8.70;99.90;;;;;;5009573;28;20273;-87
2022/10/04 00:21:56;;;;;;;28.20;7.93;;;8.70;99.90;;;;;;5010789;28;20306;-87
2022/10/04 00:24:23;;;;;;;11.53;7.40;;;8.70;99.90;;;;;;4980001;28;20303;-87
2022/10/04 00:26:50;;;;;;;8.30;7.00;;;8.60;99.90;;;;;;4979271;28;20203;-87
2022/10/04 00:30:00;;;;;;;9.67;7.33;;;8.50;99.90;;;;;;5012362;28;20203;-87
2022/10/04 00:32:42;;;;;;;9.07;6.83;;;8.50;99.90;;;;;;4971826;28;20305;-86
2022/10/04 00:35:50;;;;;;;15.10;7.50;;;8.50;99.90;;;;;;4939620;28;20253;-87
2022/10/04 00:38:25;;;;;;;16.10;8.20;;;8.40;99.90;;;;;;4976303;28;20218;-87
2022/10/04 00:41:04;;;;;;;9.20;7.30;;;8.40;99.90;;;;;;4979712;28;20216;-86
2022/10/04 00:43:46;;;;;;;15.83;7.60;;;8.30;99.90;;;;;;4979957;28;20221;-87
2022/10/04 00:46:19;;;;;;;7.87;6.67;;;8.30;99.90;;;;;;4979720;28;20211;-86
2022/10/04 00:49:07;;;;;;;9.90;6.80;;;8.30;99.90;;;;;;5012530;28;20213;-87
2022/10/04 00:51:53;;;;;;;10.77;7.10;;;8.20;99.90;;;;;;4980580;28;20234;-86
2022/10/04 00:54:32;;;;;;;11.20;7.17;;;8.20;99.90;;;;;;5014186;28;20155;-87
2022/10/04 00:57:10;;;;;;;12.23;7.27;;;8.10;99.90;;;;;;5010903;28;20206;-86
2022/10/04 00:59:43;;;;;;;10.10;7.90;;;8.10;99.90;;;;;;5028843;28;20205;-86
2022/10/04 01:02:25;;;;;;;8.70;7.30;;;8.10;99.90;;;;;;4979635;28;20201;-87
2022/10/04 01:05:09;;;;;;;24.03;8.33;;;8.20;99.90;;;;;;4980260;28;20214;-87
2022/10/04 01:07:42;;;;;;;25.93;9.00;;;8.20;99.90;;;;;;4979622;28;20237;-87
2022/10/04 01:10:29;;;;;;;19.50;9.40;;;8.20;99.90;;;;;;4979398;28;20294;-87
2022/10/04 01:13:24;;;;;;;33.60;9.73;;;8.20;99.90;;;;;;4975836;28;20292;-87
2022/10/04 01:16:14;;;;;;;22.00;8.57;;;8.20;99.90;;;;;;4990659;28;20203;-87
2022/10/04 01:18:43;;;;;;;23.53;8.10;;;8.10;99.90;;;;;;4979106;28;20267;-87
2022/10/04 01:21:22;;;;;;;27.90;9.23;;;8.00;99.90;;;;;;4976921;28;20192;-87
2022/10/04 01:23:56;;;;;;;12.50;7.33;;;8.00;99.90;;;;;;4992105;28;20692;-87
2022/10/04 01:26:33;;;;;;;9.27;6.87;;;7.90;99.90;;;;;;4996744;28;20200;-86
2022/10/04 01:29:12;;;;;;;7.63;5.70;;;7.90;99.90;;;;;;5009171;28;20211;-87
2022/10/04 01:31:50;;;;;;;5.40;4.80;;;7.80;99.90;;;;;;4992802;28;20211;-86
2022/10/04 01:34:26;;;;;;;5.20;4.30;;;7.80;99.90;;;;;;4993817;28;20186;-87
2022/10/04 01:37:00;;;;;;;4.10;3.70;;;7.70;99.90;;;;;;4995650;28;20221;-87
2022/10/04 01:39:30;;;;;;;4.27;3.57;;;7.60;99.90;;;;;;4995688;28;20253;-87
2022/10/04 01:42:11;;;;;;;4.40;3.93;;;7.60;99.90;;;;;;4979837;28;20186;-87
2022/10/04 01:44:55;;;;;;;4.33;3.87;;;7.60;99.90;;;;;;4976364;28;20194;-86
2022/10/04 01:47:36;;;;;;;4.00;3.60;;;7.70;99.90;;;;;;4991881;28;20200;-86
2022/10/04 01:50:09;;;;;;;5.53;4.67;;;7.80;99.90;;;;;;4976291;28;20203;-86
2022/10/04 01:52:50;;;;;;;4.40;4.00;;;7.80;99.90;;;;;;4976355;28;20208;-86
2022/10/04 01:55:23;;;;;;;5.07;4.53;;;7.80;99.90;;;;;;4992533;28;20160;-87
2022/10/04 01:57:57;;;;;;;5.93;4.40;;;7.80;99.90;;;;;;4975561;28;20251;-87
2022/10/04 02:00:23;;;;;;;7.40;5.63;;;7.80;99.90;;;;;;4976412;28;20195;-86
2022/10/04 02:03:01;;;;;;;6.40;5.23;;;7.70;99.90;;;;;;5008633;28;20241;-86
2022/10/04 02:05:42;;;;;;;10.17;6.27;;;7.60;99.90;;;;;;4975996;28;20214;-87
2022/10/04 02:08:19;;;;;;;5.27;4.67;;;7.60;99.90;;;;;;4988301;28;20234;-86
2022/10/04 02:10:53;;;;;;;4.17;3.70;;;7.50;99.90;;;;;;4993392;28;20526;-86
2022/10/04 02:13:32;;;;;;;3.20;2.90;;;7.40;99.90;;;;;;4986028;28;20179;-86
2022/10/04 02:16:01;;;;;;;3.30;3.00;;;7.40;99.90;;;;;;4983017;28;20203;-86
2022/10/04 02:18:30;;;;;;;3.40;3.10;;;7.30;99.90;;;;;;4980475;28;20616;-86
2022/10/04 02:20:58;;;;;;;3.10;2.80;;;7.20;99.90;;;;;;4980611;28;20568;-86
2022/10/04 02:23:24;;;;;;;3.10;2.90;;;7.10;99.90;;;;;;4980563;28;20178;-86
2022/10/04 02:25:50;;;;;;;3.20;2.90;;;7.10;99.90;;;;;;4980968;28;20202;-87
2022/10/04 02:28:18;;;;;;;3.10;2.87;;;7.00;99.90;;;;;;4981734;28;20624;-87
2022/10/04 02:32:56;;;;;;;3.07;2.87;;;6.90;99.90;;;;;;5012948;28;20217;-87
2022/10/04 02:33:42;;;;;;;3.27;2.97;;;6.90;99.90;;;;;;4996405;28;20190;-87
2022/10/04 02:36:09;;;;;;;4.73;3.27;;;6.80;99.90;;;;;;4980780;28;20232;-86
2022/10/04 02:38:45;;;;;;;4.20;3.70;;;6.80;99.90;;;;;;4977045;28;20183;-86
2022/10/04 02:41:28;;;;;;;6.30;3.47;;;6.80;99.90;;;;;;4977332;28;20185;-87
2022/10/04 02:44:16;;;;;;;3.80;3.20;;;6.80;99.90;;;;;;4985565;28;20183;-86
2022/10/04 02:47:15;;;;;;;3.93;2.80;;;6.80;99.90;;;;;;4977037;28;20195;-87
2022/10/04 02:49:53;;;;;;;3.77;3.20;;;6.80;99.90;;;;;;4958220;28;20223;-87
2022/10/04 02:52:31;;;;;;;3.10;2.80;;;6.80;99.90;;;;;;4980138;28;20190;-86
2022/10/04 02:55:05;;;;;;;3.27;3.00;;;6.70;99.90;;;;;;4980423;28;20710;-87
2022/10/04 02:57:33;;;;;;;3.40;3.10;;;6.70;99.90;;;;;;4979861;28;20190;-86
2022/10/04 03:00:11;;;;;;;7.93;3.60;;;6.70;99.90;;;;;;4980200;28;20269;-87
2022/10/04 03:02:38;;;;;;;3.43;3.13;;;6.70;99.90;;;;;;5028719;28;20187;-86
2022/10/04 03:05:09;;;;;;;3.20;2.90;;;6.70;99.90;;;;;;4979961;28;20222;-87
2022/10/04 03:07:37;;;;;;;3.20;2.90;;;6.70;99.90;;;;;;4979644;28;20209;-87
2022/10/04 03:10:10;;;;;;;2.93;2.73;;;6.70;99.90;;;;;;4979787;28;20208;-86
2022/10/04 03:12:38;;;;;;;3.43;3.13;;;6.60;99.90;;;;;;4999006;28;20178;-86
2022/10/04 03:15:11;;;;;;;3.90;2.80;;;6.60;99.90;;;;;;4981850;28;20259;-87
2022/10/04 03:17:49;;;;;;;3.27;2.97;;;6.50;99.90;;;;;;4983668;28;20175;-86
2022/10/04 03:20:39;;;;;;;5.03;3.23;;;6.50;99.90;;;;;;4980919;28;20615;-86
2022/10/04 03:23:16;;;;;;;2.77;2.57;;;6.50;99.90;;;;;;4980193;28;20274;-86
2022/10/04 03:26:00;;;;;;;3.50;3.20;;;6.40;99.90;;;;;;4980627;28;20209;-86
2022/10/04 03:28:39;;;;;;;3.10;2.90;;;6.40;99.90;;;;;;4995536;28;20184;-86
2022/10/04 03:31:13;;;;;;;3.90;3.50;;;6.40;99.90;;;;;;4982118;28;20268;-86
2022/10/04 03:33:40;;;;;;;5.20;3.93;;;6.40;99.90;;;;;;4981771;28;20186;-87
2022/10/04 03:36:16;;;;;;;21.03;4.67;;;6.40;99.90;;;;;;4981377;28;20201;-86
2022/10/04 03:38:53;;;;;;;4.60;4.20;;;6.40;99.90;;;;;;4997891;28;20185;-86
2022/10/04 03:41:28;;;;;;;5.30;4.80;;;6.30;99.90;;;;;;5005553;28;20189;-87
2022/10/04 03:44:00;;;;;;;4.70;3.60;;;6.30;99.90;;;;;;5026075;28;20172;-87
2022/10/04 03:46:39;;;;;;;3.50;3.20;;;6.30;99.90;;;;;;4984612;28;20246;-87
2022/10/04 03:49:19;;;;;;;4.03;2.83;;;6.30;99.90;;;;;;5016500;28;20206;-87
2022/10/04 03:51:50;;;;;;;3.90;3.50;;;6.40;99.90;;;;;;4987321;28;20186;-87
2022/10/04 03:54:22;;;;;;;3.10;2.80;;;6.30;99.90;;;;;;4981898;28;20174;-87
2022/10/04 03:56:53;;;;;;;4.63;3.10;;;6.30;99.90;;;;;;4975055;28;20194;-87
2022/10/04 03:59:19;;;;;;;4.90;3.70;;;6.30;99.90;;;;;;4979339;28;20186;-86
2022/10/04 04:02:05;;;;;;;4.13;3.73;;;6.30;99.90;;;;;;4994163;28;20183;-86
2022/10/04 04:04:45;;;;;;;4.23;3.80;;;6.30;99.90;;;;;;5027735;28;20186;-86
2022/10/04 04:07:40;;;;;;;3.87;3.40;;;6.20;99.90;;;;;;5012244;28;20215;-86
2022/10/04 04:10:17;;;;;;;3.60;3.30;;;6.30;99.90;;;;;;4978920;28;20220;-86
2022/10/04 04:13:09;;;;;;;3.57;3.27;;;6.20;99.90;;;;;;4994863;28;20176;-86
2022/10/04 04:15:36;;;;;;;4.83;3.60;;;6.20;99.90;;;;;;4978446;28;20229;-87
2022/10/04 04:18:06;;;;;;;4.63;4.07;;;6.20;99.90;;;;;;5011205;28;20177;-86
2022/10/04 04:20:41;;;;;;;4.20;3.80;;;6.20;99.90;;;;;;4979148;28;20215;-86
2022/10/04 04:23:13;;;;;;;4.33;3.93;;;6.20;99.90;;;;;;4978732;28;20200;-86
2022/10/04 04:25:41;;;;;;;4.17;3.77;;;6.20;99.90;;;;;;5011823;28;20308;-86
2022/10/04 04:28:24;;;;;;;4.47;4.07;;;6.10;99.90;;;;;;4979062;28;20195;-86
2022/10/04 04:30:56;;;;;;;4.67;4.27;;;6.10;99.90;;;;;;4979346;28;20236;-87
2022/10/04 04:33:29;;;;;;;4.73;3.67;;;6.10;99.90;;;;;;4979366;28;20214;-86
2022/10/04 04:36:06;;;;;;;3.60;3.20;;;6.10;99.90;;;;;;4995334;28;20232;-87
2022/10/04 04:38:34;;;;;;;4.17;2.93;;;6.10;99.90;;;;;;4977600;28;20739;-86
2022/10/04 04:41:09;;;;;;;3.40;3.10;;;6.10;99.90;;;;;;5012855;28;20226;-86
2022/10/04 04:43:35;;;;;;;3.87;3.00;;;6.10;99.90;;;;;;5027176;28;20263;-86
2022/10/04 04:46:01;;;;;;;2.80;2.60;;;6.10;99.90;;;;;;4978343;28;20277;-86
2022/10/04 04:48:28;;;;;;;3.23;2.87;;;6.10;99.90;;;;;;5009819;28;20180;-86
2022/10/04 04:50:57;;;;;;;3.47;3.17;;;6.10;99.90;;;;;;4985476;28;20179;-86
2022/10/04 04:53:27;;;;;;;4.87;4.20;;;6.10;99.90;;;;;;4993892;28;20178;-86
2022/10/04 04:55:59;;;;;;;7.93;4.47;;;6.20;99.90;;;;;;5014808;28;20216;-86
2022/10/04 04:58:41;;;;;;;4.70;4.20;;;6.20;99.90;;;;;;4979958;28;20187;-86
2022/10/04 05:01:25;;;;;;;5.10;4.40;;;6.10;99.90;;;;;;4995990;28;20180;-86
2022/10/04 05:04:03;;;;;;;5.00;4.50;;;6.10;99.90;;;;;;5008286;28;20240;-86
2022/10/04 05:06:31;;;;;;;7.33;4.63;;;6.10;99.90;;;;;;5012231;28;20200;-86
2022/10/04 05:08:57;;;;;;;4.80;4.30;;;6.00;99.90;;;;;;4979722;28;20684;-86
2022/10/04 05:11:33;;;;;;;5.73;5.23;;;5.90;99.90;;;;;;5009098;28;20178;-86
2022/10/04 05:14:11;;;;;;;6.30;5.80;;;5.70;99.90;;;;;;4992527;28;20666;-86
2022/10/04 05:16:49;;;;;;;9.80;4.63;;;5.70;99.90;;;;;;4994233;28;20267;-86
2022/10/04 05:19:27;;;;;;;5.77;4.10;;;5.70;99.90;;;;;;5003266;28;20195;-86
2022/10/04 05:21:55;;;;;;;4.40;4.00;;;5.60;99.90;;;;;;4974695;28;20197;-86
2022/10/04 05:24:30;;;;;;;13.10;4.33;;;5.50;99.90;;;;;;4992668;28;20185;-86
2022/10/04 05:27:06;;;;;;;4.30;3.90;;;5.50;99.90;;;;;;5006542;28;20205;-86
2022/10/04 05:29:36;;;;;;;5.83;4.30;;;5.50;99.90;;;;;;5008419;28;20211;-86
2022/10/04 05:32:47;;;;;;;5.47;4.00;;;5.50;99.90;;;;;;4980347;28;20181;-86
2022/10/04 05:35:19;;;;;;;4.60;4.10;;;5.60;99.90;;;;;;4988309;28;20188;-86
2022/10/04 05:38:09;;;;;;;3.80;3.40;;;5.50;99.90;;;;;;4996204;28;20182;-86
2022/10/04 05:40:46;;;;;;;3.50;3.10;;;5.50;99.90;;;;;;5031740;28;20220;-86
2022/10/04 05:43:46;;;;;;;4.03;3.63;;;5.50;99.90;;;;;;4989375;28;20173;-86
2022/10/04 05:46:18;;;;;;;3.90;3.60;;;5.50;99.90;;;;;;4995290;28;20213;-86
2022/10/04 05:48:47;;;;;;;3.43;3.13;;;5.60;99.90;;;;;;4995776;28;20173;-86
2022/10/04 05:51:27;;;;;;;5.10;3.50;;;5.60;99.90;;;;;;5005974;28;20207;-86
2022/10/04 05:53:55;;;;;;;3.57;3.10;;;5.60;99.90;;;;;;5012312;28;20200;-86
2022/10/04 05:56:54;;;;;;;4.93;3.00;;;5.60;99.90;;;;;;5012950;28;20205;-86
2022/10/04 05:59:54;;;;;;;3.30;3.00;;;5.60;99.90;;;;;;4979910;28;20190;-86
2022/10/04 06:02:31;;;;;;;3.80;3.50;;;5.50;99.90;;;;;;4979533;28;20636;-86
2022/10/04 06:05:03;;;;;;;4.50;3.60;;;5.50;99.90;;;;;;4977395;28;20179;-87
2022/10/04 06:07:37;;;;;;;3.60;3.30;;;5.50;99.90;;;;;;4979016;28;20244;-88
2022/10/04 06:10:36;;;;;;;3.80;3.50;;;5.50;99.90;;;;;;5013486;28;20227;-87
2022/10/04 06:13:05;;;;;;;4.50;3.50;;;5.60;99.90;;;;;;4979833;28;20171;-86
2022/10/04 06:16:00;;;;;;;4.07;3.30;;;5.70;99.90;;;;;;4978875;28;20210;-87
2022/10/04 06:18:35;;;;;;;5.50;3.50;;;5.70;99.90;;;;;;4976760;28;20183;-87
2022/10/04 06:21:10;;;;;;;4.60;3.23;;;5.70;99.90;;;;;;4977066;28;20195;-87
2022/10/04 06:23:54;;;;;;;7.73;3.47;;;5.70;99.90;;;;;;4977443;28;20285;-87
2022/10/04 06:26:24;;;;;;;4.87;3.80;;;5.70;99.90;;;;;;5010816;28;20236;-87
2022/10/04 06:29:10;;;;;;;5.17;3.50;;;5.80;99.90;;;;;;4976816;28;20210;-87
2022/10/04 06:32:03;;;;;;;4.90;3.53;;;5.80;99.90;;;;;;4977310;28;20188;-87
2022/10/04 06:34:54;;;;;;;4.40;3.03;;;5.80;99.90;;;;;;4993305;28;20651;-87
2022/10/04 06:37:41;;;;;;;4.57;3.70;;;5.80;99.90;;;;;;4976566;28;20217;-87
2022/10/04 06:40:25;;;;;;;12.80;3.87;;;5.90;99.90;;;;;;4977067;28;20218;-86
2022/10/04 06:43:00;;;;;;;10.20;3.27;;;5.90;99.90;;;;;;4993293;28;20223;-87
2022/10/04 06:45:48;;;;;;;12.07;3.50;;;6.00;99.90;;;;;;4973216;28;20679;-87
2022/10/04 06:48:23;;;;;;;6.27;3.50;;;6.00;99.90;;;;;;5006080;28;20242;-86
2022/10/04 06:51:14;;;;;;;6.30;3.50;;;6.10;99.90;;;;;;5006014;28;20202;-87
2022/10/04 06:53:54;;;;;;;4.50;3.47;;;6.10;99.90;;;;;;4989694;28;20195;-86
2022/10/04 06:56:39;;;;;;;4.60;3.40;;;6.20;99.90;;;;;;5026953;28;20199;-87
2022/10/04 06:59:26;;;;;;;6.27;3.73;;;6.30;99.90;;;;;;5049642;28;20215;-87
2022/10/04 07:02:01;;;;;;;3.87;3.40;;;6.30;99.90;;;;;;4998764;28;20192;-87
2022/10/04 07:04:30;;;;;;;4.43;3.63;;;6.40;99.90;;;;;;5031307;28;20187;-87
2022/10/04 07:07:37;;;;;;;5.20;3.93;;;6.40;99.90;;;;;;5033555;28;20196;-87
2022/10/04 07:10:11;;;;;;;5.97;4.47;;;6.40;99.90;;;;;;4972287;28;20201;-87
2022/10/04 07:12:41;;;;;;;4.37;3.60;;;6.50;99.90;;;;;;5009925;28;20200;-87
2022/10/04 07:15:21;;;;;;;4.23;3.40;;;6.50;99.90;;;;;;5040032;28;20196;-87
2022/10/04 07:17:50;;;;;;;4.47;3.53;;;6.60;99.90;;;;;;4995967;28;20179;-86
2022/10/04 07:20:25;;;;;;;3.03;2.83;;;6.60;99.90;;;;;;4995954;28;20215;-87
2022/10/04 07:23:21;;;;;;;3.77;3.40;;;6.70;99.90;;;;;;4996347;28;20181;-86
2022/10/04 07:25:53;;;;;;;4.13;3.43;;;6.70;99.90;;;;;;5012525;28;20200;-87
2022/10/04 07:31:29;;;;;;;6.63;5.37;;;6.80;99.90;;;;;;5028509;28;20213;-87
2022/10/04 07:34:15;;;;;;;4.37;3.93;;;6.80;99.90;;;;;;4996161;28;20204;-87
2022/10/04 07:36:51;;;;;;;6.27;4.90;;;6.90;99.90;;;;;;4996825;28;20214;-87
2022/10/04 07:39:40;;;;;;;3.93;3.53;;;6.90;99.90;;;;;;4989214;28;20206;-87
2022/10/04 07:43:00;;;;;;;4.23;3.80;;;6.90;99.90;;;;;;4996057;28;20236;-87
2022/10/04 07:45:41;;;;;;;6.27;4.40;;;6.90;99.90;;;;;;4929996;28;20211;-86
2022/10/04 07:48:22;;;;;;;4.73;4.33;;;7.00;99.90;;;;;;4944480;28;20216;-86
2022/10/04 07:50:56;;;;;;;7.30;6.13;;;7.10;99.90;;;;;;4995963;28;20198;-86
2022/10/04 07:53:53;;;;;;;4.27;3.80;;;7.20;99.90;;;;;;5018847;28;20235;-86
2022/10/04 07:56:35;;;;;;;3.80;3.47;;;7.30;99.90;;;;;;4994433;28;20239;-86
2022/10/04 07:59:21;;;;;;;4.20;3.73;;;7.30;99.90;;;;;;5005284;28;20245;-87
2022/10/04 08:02:21;;;;;;;4.27;3.77;;;7.40;99.90;;;;;;5027587;28;20186;-91
2022/10/04 08:05:08;;;;;;;3.60;3.30;;;7.50;99.90;;;;;;5010857;28;20632;-86
2022/10/04 08:07:54;;;;;;;4.17;3.27;;;7.60;99.90;;;;;;5009883;28;20185;-86
2022/10/04 08:10:34;;;;;;;3.73;3.30;;;7.70;99.90;;;;;;4978060;28;20181;-87
2022/10/04 08:13:31;;;;;;;5.30;3.53;;;7.80;99.90;;;;;;5011207;28;20245;-87
2022/10/04 08:16:27;;;;;;;4.00;3.60;;;7.90;99.90;;;;;;4995542;28;20226;-87
2022/10/04 08:19:16;;;;;;;5.60;4.17;;;8.10;99.90;;;;;;5010923;28;20183;-87
2022/10/04 08:22:04;;;;;;;4.20;3.80;;;8.30;99.90;;;;;;4995770;28;20225;-87
2022/10/04 08:24:48;;;;;;;3.90;3.50;;;8.40;99.90;;;;;;5012133;28;20182;-88
2022/10/04 08:29:41;;;;;;;3.90;3.50;;;8.60;99.90;;;;;;4997857;28;20206;-87
2022/10/04 08:30:51;;;;;;;4.07;3.77;;;8.70;99.90;;;;;;4993055;28;20191;-87
2022/10/04 08:34:06;;;;;;;4.03;3.73;;;8.90;99.90;;;;;;5010265;28;20183;-87
2022/10/04 08:36:51;;;;;;;4.17;3.60;;;9.00;99.90;;;;;;5001183;28;20258;-87
2022/10/04 08:39:36;;;;;;;8.37;4.03;;;9.20;99.90;;;;;;5011235;28;20203;-87
2022/10/04 08:42:26;;;;;;;3.97;3.43;;;9.30;99.90;;;;;;5012299;28;20175;-87
2022/10/04 08:44:59;;;;;;;5.77;4.10;;;9.30;99.90;;;;;;4977305;28;20199;-87
2022/10/04 08:47:50;;;;;;;3.97;3.60;;;9.50;99.90;;;;;;5009967;28;20219;-87
2022/10/04 08:50:37;;;;;;;4.73;4.27;;;9.50;99.90;;;;;;4961760;28;20226;-87
2022/10/04 08:53:24;;;;;;;3.97;3.60;;;9.50;99.90;;;;;;4990793;28;20184;-87
2022/10/04 08:56:09;;;;;;;5.47;4.40;;;9.50;99.90;;;;;;5003644;28;20198;-88
2022/10/04 08:58:51;;;;;;;4.40;4.00;;;9.60;99.90;;;;;;5028071;28;20194;-87
2022/10/04 09:01:36;;;;;;;4.67;4.10;;;9.60;99.90;;;;;;5030384;28;20182;-87
2022/10/04 09:04:35;;;;;;;7.80;4.37;;;9.80;99.90;;;;;;5008958;28;20176;-87
2022/10/04 09:07:22;;;;;;;5.07;4.40;;;9.90;99.90;;;;;;5007946;28;20698;-88
2022/10/04 09:10:25;;;;;;;4.23;3.83;;;10.00;99.90;;;;;;5030473;28;20178;-87
2022/10/04 09:13:23;;;;;;;6.63;4.30;;;10.10;99.90;;;;;;5008902;28;20187;-87
2022/10/04 09:15:59;;;;;;;4.70;4.20;;;10.40;99.90;;;;;;4976755;28;20210;-87
2022/10/04 09:18:28;;;;;;;5.30;4.20;;;10.60;99.90;;;;;;4992851;28;20192;-88
2022/10/04 09:20:57;;;;;;;4.40;4.00;;;10.70;99.90;;;;;;4977551;28;20216;-88
2022/10/04 09:23:32;;;;;;;4.87;4.37;;;11.00;99.90;;;;;;4978141;28;20210;-87
2022/10/04 09:26:09;;;;;;;4.87;4.43;;;11.10;99.90;;;;;;4979745;28;20198;-88
2022/10/04 09:29:09;;;;;;;5.63;4.20;;;11.20;99.90;;;;;;4977573;28;20241;-88
2022/10/04 09:32:13;;;;;;;4.80;4.30;;;11.30;99.90;;;;;;5012179;28;20193;-88
2022/10/04 09:35:09;;;;;;;5.10;4.27;;;11.30;99.90;;;;;;4978589;28;20185;-87
2022/10/04 09:38:11;;;;;;;4.43;4.03;;;11.50;99.90;;;;;;4959394;28;20198;-88
2022/10/04 09:41:04;;;;;;;7.50;4.40;;;11.70;99.90;;;;;;4996236;28;20222;-87
2022/10/04 09:43:54;;;;;;;4.87;4.00;;;11.90;99.90;;;;;;4977899;28;20638;-88
2022/10/04 09:47:03;;;;;;;5.90;4.57;;;12.00;99.90;;;;;;5011702;28;20288;-88
2022/10/04 09:49:41;;;;;;;5.43;4.30;;;12.20;99.90;;;;;;5010527;28;20181;-87
2022/10/04 09:52:40;;;;;;;4.93;3.93;;;12.30;99.90;;;;;;5011576;28;20187;-88
2022/10/04 09:55:35;;;;;;;5.73;4.23;;;12.40;99.90;;;;;;5010887;28;20287;-87
2022/10/04 09:58:21;;;;;;;4.87;3.90;;;12.40;99.90;;;;;;5010522;28;20250;-88
2022/10/04 10:01:01;;;;;;;5.50;4.10;;;12.60;99.90;;;;;;4978681;28;20216;-87
2022/10/04 10:03:54;;;;;;;3.97;3.57;;;12.80;99.90;;;;;;4977872;28;20201;-87
2022/10/04 10:06:48;;;;;;;4.40;3.77;;;13.00;99.90;;;;;;4995530;28;20261;-87
2022/10/04 10:15:25;;;;;;;4.67;3.47;;;13.50;99.90;;;;;;4994327;28;20191;-87
2022/10/04 10:17:55;;;;;;;5.30;3.87;;;13.50;99.90;;;;;;4995355;28;20266;-87
2022/10/04 10:20:29;;;;;;;6.47;4.10;;;13.60;99.90;;;;;;4979504;28;20218;-85
2022/10/04 10:23:30;;;;;;;4.03;3.63;;;13.70;99.90;;;;;;5013675;28;20273;-85
2022/10/04 10:26:17;;;;;;;5.70;3.30;;;13.80;99.90;;;;;;5014638;28;20234;-86
2022/10/04 10:29:17;;;;;;;6.23;3.87;;;14.10;99.90;;;;;;5002604;28;20187;-85
2022/10/04 10:32:06;;;;;;;4.60;3.70;;;14.20;99.90;;;;;;4982605;28;20214;-85
2022/10/04 10:35:09;;;;;;;4.90;4.07;;;14.30;99.90;;;;;;5025427;28;20180;-89
2022/10/04 10:37:44;;;;;;;6.40;3.73;;;14.30;99.90;;;;;;4946443;28;20195;-85
2022/10/04 10:40:34;;;;;;;5.33;3.40;;;14.50;99.90;;;;;;4982623;28;20248;-86
2022/10/04 10:43:17;;;;;;;4.67;3.67;;;14.60;99.90;;;;;;4997047;28;20191;-86
2022/10/04 10:46:14;;;;;;;4.57;3.33;;;14.80;99.90;;;;;;5021195;28;20203;-85
2022/10/04 10:48:58;;;;;;;5.03;3.70;;;14.90;99.90;;;;;;4988713;28;20562;-85
2022/10/04 10:52:09;;;;;;;6.07;3.50;;;15.00;99.90;;;;;;4995321;28;20188;-86
2022/10/04 10:55:07;;;;;;;5.37;3.37;;;15.10;99.90;;;;;;5030034;28;20182;-86
2022/10/04 10:57:55;;;;;;;6.27;3.37;;;15.20;99.90;;;;;;4995152;28;20195;-85
2022/10/04 11:00:36;;;;;;;4.47;3.00;;;15.30;99.90;;;;;;5014846;28;20207;-86
2022/10/04 11:03:35;;;;;;;6.87;3.10;;;15.40;99.90;;;;;;4995442;28;20164;-86
2022/10/04 11:06:04;;;;;;;5.97;2.83;;;15.50;99.90;;;;;;5036133;28;20290;-86
2022/10/04 11:08:42;;;;;;;4.43;2.83;;;15.60;99.90;;;;;;4981636;28;20198;-86
2022/10/04 11:11:27;;;;;;;5.47;2.60;;;15.80;99.90;;;;;;4997817;28;20175;-86
2022/10/04 11:14:26;;;;;;;4.50;2.80;;;16.00;99.90;;;;;;5030317;28;20275;-86
2022/10/04 11:17:08;;;;;;;4.60;3.50;;;16.30;99.90;;;;;;5013627;28;20206;-86
2022/10/04 11:20:15;;;;;;;4.17;2.57;;;16.30;99.90;;;;;;4980906;28;20203;-86
2022/10/04 11:23:03;;;;;;;3.00;2.53;;;16.50;99.90;;;;;;4976821;28;20192;-86
2022/10/04 11:25:49;;;;;;;3.58;2.63;;;16.70;99.90;;;;;;5014359;28;20203;-86
2022/10/04 11:28:48;;;;;;;4.82;2.80;;;16.90;99.90;;;;;;4985721;28;20202;-86
2022/10/04 11:31:42;;;;;;;3.50;2.60;;;17.00;99.90;;;;;;5022684;28;20187;-86
2022/10/04 11:34:42;;;;;;;3.30;2.40;;;17.00;99.90;;;;;;5018622;28;20182;-86
2022/10/04 11:37:30;;;;;;;4.60;2.60;;;17.20;99.90;;;;;;5005714;28;20195;-86
2022/10/04 11:40:17;;;;;;;4.97;2.10;;;17.20;99.90;;;;;;4979477;28;20211;-86
2022/10/04 11:43:18;;;;;;;3.28;2.30;;;17.20;99.90;;;;;;4995688;28;20179;-86
2022/10/04 11:46:15;;;;;;;3.85;2.50;;;17.20;99.90;;;;;;5028398;28;20217;-86
2022/10/04 11:48:52;;;;;;;2.97;2.58;;;17.40;99.90;;;;;;4995201;28;20202;-86
2022/10/04 11:51:27;;;;;;;3.90;2.50;;;17.50;99.90;;;;;;5012752;28;20263;-86
2022/10/04 11:54:16;;;;;;;2.88;2.28;;;17.60;99.90;;;;;;4981160;28;20235;-86
2022/10/04 11:57:14;;;;;;;3.47;2.30;;;17.80;99.90;;;;;;5014565;28;20202;-87
2022/10/04 12:00:11;;;;;;;2.63;2.33;;;18.20;99.90;;;;;;5005035;28;20206;-86
2022/10/04 12:03:12;;;;;;;2.75;2.35;;;18.30;99.90;;;;;;5007973;28;20266;-87
2022/10/04 12:06:33;;;;;;;4.15;2.10;;;18.50;99.90;;;;;;4990786;28;20215;-86
2022/10/04 12:09:04;;;;;;;3.35;2.10;;;18.70;99.90;;;;;;5028793;28;20190;-86
2022/10/04 12:15:20;;;;;;;3.40;2.50;;;18.70;99.90;;;;;;4989780;28;20190;-85
2022/10/04 12:18:27;;;;;;;3.10;2.50;;;18.60;99.90;;;;;;5000176;28;20191;-85
2022/10/04 12:21:14;;;;;;;4.20;2.20;;;18.60;99.90;;;;;;5003982;28;20209;-85
2022/10/04 12:23:58;;;;;;;3.88;2.42;;;18.60;99.90;;;;;;4999781;28;20175;-86
2022/10/04 12:26:31;;;;;;;4.38;2.28;;;18.80;99.90;;;;;;4996906;28;20206;-86
2022/10/04 12:29:20;;;;;;;7.07;3.05;;;19.10;99.90;;;;;;5005393;28;20188;-86
2022/10/04 12:31:53;;;;;;;3.03;2.00;;;19.40;99.90;;;;;;4990065;28;20210;-86
2022/10/04 12:34:30;;;;;;;4.07;2.28;;;19.60;99.90;;;;;;5005949;28;20262;-85
2022/10/04 12:37:21;;;;;;;3.53;2.35;;;19.80;99.90;;;;;;4987216;28;20219;-86
2022/10/04 12:40:09;;;;;;;5.38;2.50;;;20.00;99.90;;;;;;5017580;28;20334;-86
2022/10/04 12:42:46;;;;;;;3.90;2.50;;;20.10;99.90;;;;;;4990646;28;20191;-86
2022/10/04 12:45:31;;;;;;;4.97;2.42;;;20.10;99.90;;;;;;5020394;28;20186;-85
2022/10/04 12:48:49;;;;;;;3.83;2.22;;;20.20;99.90;;;;;;5016454;28;20186;-86
2022/10/04 12:51:41;;;;;;;3.38;2.08;;;20.20;99.90;;;;;;4943116;28;20176;-87
2022/10/04 12:54:36;;;;;;;3.25;2.00;;;20.40;99.90;;;;;;5009776;28;20707;-88
2022/10/04 12:57:19;;;;;;;3.70;2.00;;;20.40;99.90;;;;;;4988888;28;20195;-87
2022/10/04 12:59:48;;;;;;;3.67;2.08;;;20.50;99.90;;;;;;4980791;28;20245;-88
2022/10/04 13:02:53;;;;;;;2.35;1.98;;;20.70;99.90;;;;;;4982534;28;20213;-88
2022/10/04 13:05:52;;;;;;;3.20;1.90;;;20.80;99.90;;;;;;5010733;28;20225;-88
2022/10/04 13:08:39;;;;;;;2.10;1.90;;;21.10;99.90;;;;;;4967912;28;20179;-88
2022/10/04 13:11:11;;;;;;;2.00;1.73;;;21.20;99.90;;;;;;5006496;28;20183;-88
2022/10/04 13:13:52;;;;;;;2.92;1.85;;;21.30;99.90;;;;;;5002575;28;20187;-90
2022/10/04 13:16:55;;;;;;;2.65;1.90;;;21.30;99.90;;;;;;5010401;28;20203;-88
2022/10/04 13:19:39;;;;;;;2.13;1.90;;;21.30;99.90;;;;;;5003364;28;20286;-88
2022/10/04 13:22:16;;;;;;;2.25;1.88;;;21.30;99.90;;;;;;4992885;28;20190;-89
2022/10/04 13:25:01;;;;;;;4.13;1.90;;;21.50;99.90;;;;;;4985889;28;20233;-87
2022/10/04 13:27:45;;;;;;;3.55;1.90;;;21.50;99.90;;;;;;5002460;28;20199;-77
2022/10/04 13:30:32;;;;;;;2.78;1.90;;;21.40;99.90;;;;;;4995869;28;20226;-76
2022/10/04 13:33:29;;;;;;;4.10;1.70;;;21.30;99.90;;;;;;5028308;28;20269;-77
2022/10/04 13:36:12;;;;;;;2.78;1.70;;;21.50;99.90;;;;;;5013714;28;20300;-89
2022/10/04 13:38:47;;;;;;;2.28;1.70;;;21.60;99.90;;;;;;4988074;28;20183;-87
2022/10/04 13:41:13;;;;;;;2.03;1.50;;;21.70;99.90;;;;;;4984245;28;20267;-88
2022/10/04 13:44:09;;;;;;;1.85;1.42;;;21.80;99.90;;;;;;5009805;28;20225;-88
2022/10/04 13:46:57;;;;;;;1.67;1.58;;;21.80;99.90;;;;;;4996049;28;20234;-87
2022/10/04 13:49:48;;;;;;;1.90;1.50;;;21.80;99.90;;;;;;5025875;28;20175;-87
2022/10/04 13:59:15;;;;;;;1.67;1.38;;;22.30;99.90;;;;;;5025641;28;20159;-86
2022/10/04 14:01:59;;;;;;;1.95;1.73;;;22.40;99.90;;;;;;4980041;28;20175;-87
2022/10/04 14:04:47;;;;;;;2.42;1.60;;;22.60;99.90;;;;;;4984993;28;20175;-87
2022/10/04 14:07:36;;;;;;;2.42;1.70;;;22.70;99.90;;;;;;5012611;28;20218;-87
2022/10/04 14:10:27;;;;;;;3.60;1.90;;;22.90;99.90;;;;;;5003229;28;20175;-87
2022/10/04 14:13:09;;;;;;;2.92;1.70;;;23.00;99.90;;;;;;4999582;28;20191;-89
2022/10/04 14:16:06;;;;;;;5.47;1.88;;;23.00;99.90;;;;;;4980644;28;20207;-87
2022/10/04 14:19:05;;;;;;;2.22;1.42;;;23.00;99.90;;;;;;5012711;28;20230;-86
2022/10/04 14:21:58;;;;;;;3.45;1.70;;;23.00;99.90;;;;;;5009795;28;20195;-86
2022/10/04 14:24:39;;;;;;;3.20;2.00;;;23.00;99.90;;;;;;4979144;28;20203;-87
2022/10/04 14:27:22;;;;;;;2.65;1.65;;;23.10;99.90;;;;;;5014315;28;20203;-85
2022/10/04 14:30:17;;;;;;;2.58;1.75;;;23.10;99.90;;;;;;4996142;28;20180;-86
2022/10/04 14:32:55;;;;;;;2.25;1.52;;;23.20;99.90;;;;;;5023180;28;20241;-87